Time;durP1;ratioP1;P1;durP2;ratioP2;P2;SDS_P1;SDS_P2;PMS_P1;PMS_P2;Temp;Humidity;BMP_temperature;BMP_pressure;BME280_temperature;BME280_humidity;BME280_pressure;Samples;Min_cycle;Max_cycle;Signal;HPM_P1;HPM_P2
2023/06/12 00:00:52;;;;;;;7.18;4.93;;;21.80;41.50;;;;;;5034374;28;20045;-65
2023/06/12 00:03:25;;;;;;;8.98;5.38;;;21.80;41.60;;;;;;5022210;28;20385;-65
2023/06/12 00:05:58;;;;;;;6.63;5.03;;;21.70;41.50;;;;;;5034708;28;20041;-65
2023/06/12 00:08:35;;;;;;;7.47;4.60;;;21.60;41.70;;;;;;5036844;28;20038;-65
2023/06/12 00:11:02;;;;;;;10.32;5.18;;;21.50;41.70;;;;;;5018707;28;20057;-65
2023/06/12 00:13:28;;;;;;;6.80;4.30;;;21.50;41.90;;;;;;5025921;28;20111;-65
2023/06/12 00:15:54;;;;;;;6.80;4.50;;;21.40;41.90;;;;;;5031193;28;20141;-66
2023/06/12 00:18:19;;;;;;;6.32;4.70;;;21.40;42.00;;;;;;5026235;28;20159;-65
2023/06/12 00:20:45;;;;;;;5.90;4.53;;;21.30;42.00;;;;;;5018209;28;20103;-65
2023/06/12 00:23:11;;;;;;;8.90;4.50;;;21.20;42.10;;;;;;5015760;28;20036;-65
2023/06/12 00:25:37;;;;;;;8.27;4.40;;;21.20;42.20;;;;;;5026557;28;20045;-65
2023/06/12 00:28:03;;;;;;;7.78;4.72;;;21.10;42.30;;;;;;5047923;28;20306;-65
2023/06/12 00:30:29;;;;;;;14.63;4.57;;;21.10;42.40;;;;;;5020690;28;20542;-65
2023/06/12 00:32:54;;;;;;;7.07;4.47;;;21.00;42.50;;;;;;5026304;28;20056;-65
2023/06/12 00:35:20;;;;;;;6.40;4.05;;;21.00;42.70;;;;;;5019225;28;20600;-65
2023/06/12 00:37:46;;;;;;;7.75;4.15;;;20.90;42.80;;;;;;5026339;28;20412;-65
2023/06/12 00:40:12;;;;;;;7.63;4.35;;;20.90;43.00;;;;;;5039887;28;20046;-65
2023/06/12 00:42:46;;;;;;;7.25;3.97;;;20.80;43.10;;;;;;5032388;28;20120;-65
2023/06/12 00:45:16;;;;;;;6.05;3.80;;;20.70;43.20;;;;;;5026864;28;20121;-65
2023/06/12 00:47:47;;;;;;;6.00;4.15;;;20.70;43.40;;;;;;5020330;28;20046;-65
2023/06/12 00:50:13;;;;;;;7.28;3.50;;;20.60;43.50;;;;;;5030500;28;20095;-65
2023/06/12 00:52:48;;;;;;;7.47;3.92;;;20.60;43.70;;;;;;5031849;28;20037;-65
2023/06/12 00:55:15;;;;;;;7.25;4.20;;;20.50;43.80;;;;;;5027023;28;20048;-67
2023/06/12 00:57:42;;;;;;;7.40;4.10;;;20.50;43.90;;;;;;5016402;28;20044;-67
2023/06/12 01:00:11;;;;;;;6.30;3.40;;;20.40;44.00;;;;;;5023569;28;20069;-67
2023/06/12 01:02:42;;;;;;;8.75;4.10;;;20.40;44.20;;;;;;5033320;28;20049;-67
2023/06/12 01:05:14;;;;;;;10.18;4.10;;;20.30;44.20;;;;;;5029817;28;20565;-67
2023/06/12 01:07:51;;;;;;;5.45;3.40;;;20.30;44.50;;;;;;5039508;28;20050;-67
2023/06/12 01:10:33;;;;;;;8.93;4.15;;;20.20;44.70;;;;;;5021449;28;20489;-67
2023/06/12 01:12:59;;;;;;;7.18;3.53;;;20.20;44.70;;;;;;5025389;28;20043;-68
2023/06/12 01:15:25;;;;;;;8.45;3.92;;;20.10;45.00;;;;;;5017066;28;20096;-68
2023/06/12 01:17:51;;;;;;;6.00;3.30;;;20.00;45.10;;;;;;5016437;28;20038;-68
2023/06/12 01:20:17;;;;;;;8.63;4.15;;;20.00;45.20;;;;;;5019397;28;20030;-68
2023/06/12 01:23:11;;;;;;;6.95;3.85;;;20.00;45.40;;;;;;5011608;28;20046;-68
2023/06/12 01:25:52;;;;;;;5.18;3.50;;;19.90;45.60;;;;;;5024446;28;20033;-68
2023/06/12 01:28:48;;;;;;;7.57;3.55;;;19.80;45.70;;;;;;5019562;28;20107;-67
2023/06/12 01:31:43;;;;;;;6.93;3.30;;;19.80;45.80;;;;;;5025246;28;20095;-67
2023/06/12 01:34:20;;;;;;;7.25;3.78;;;19.70;46.10;;;;;;4984601;28;20042;-67
2023/06/12 01:36:53;;;;;;;7.88;3.33;;;19.70;46.20;;;;;;5022776;28;20139;-67
2023/06/12 01:39:21;;;;;;;5.38;3.88;;;19.60;46.40;;;;;;5017309;28;20050;-67
2023/06/12 01:41:47;;;;;;;10.30;4.15;;;19.50;46.60;;;;;;5025090;28;20046;-67
2023/06/12 01:44:16;;;;;;;5.65;3.17;;;19.50;46.70;;;;;;5011876;28;20042;-67
2023/06/12 01:46:42;;;;;;;6.00;3.53;;;19.40;46.80;;;;;;5025424;28;20116;-67
2023/06/12 01:49:08;;;;;;;6.40;3.92;;;19.40;47.00;;;;;;5026242;28;20140;-67
2023/06/12 01:51:34;;;;;;;8.95;3.85;;;19.30;47.10;;;;;;5026577;28;20049;-68
2023/06/12 01:54:00;;;;;;;7.80;3.40;;;19.30;47.30;;;;;;5020572;28;20076;-68
2023/06/12 01:56:27;;;;;;;5.35;3.40;;;19.30;47.50;;;;;;5043300;28;20041;-68
2023/06/12 01:58:54;;;;;;;4.10;3.40;;;19.20;47.60;;;;;;5016249;28;20088;-68
2023/06/12 02:01:20;;;;;;;5.43;3.58;;;19.20;47.80;;;;;;5021969;28;20539;-68
2023/06/12 02:03:47;;;;;;;6.45;3.78;;;19.10;47.90;;;;;;5018001;28;20044;-69
2023/06/12 02:06:16;;;;;;;5.95;2.92;;;19.10;48.00;;;;;;5019386;28;20083;-68
2023/06/12 02:08:42;;;;;;;4.60;3.40;;;19.10;48.20;;;;;;5018305;28;20129;-68
2023/06/12 02:11:08;;;;;;;4.50;2.88;;;19.10;48.30;;;;;;5022897;28;20045;-68
2023/06/12 02:13:34;;;;;;;6.15;3.00;;;19.00;48.40;;;;;;5023240;28;20057;-68
2023/06/12 02:16:05;;;;;;;7.07;3.55;;;19.00;48.50;;;;;;5026343;28;20033;-68
2023/06/12 02:18:32;;;;;;;5.95;3.20;;;19.00;48.60;;;;;;5021396;28;20037;-68
2023/06/12 02:20:58;;;;;;;8.70;3.90;;;19.00;48.80;;;;;;5023586;28;20509;-68
2023/06/12 02:23:23;;;;;;;6.05;3.10;;;19.00;48.90;;;;;;5018935;28;20088;-68
2023/06/12 02:25:49;;;;;;;8.02;3.67;;;19.00;48.90;;;;;;5004508;28;20041;-67
2023/06/12 02:28:15;;;;;;;5.88;3.28;;;19.00;49.10;;;;;;5023648;28;20420;-67
2023/06/12 02:30:40;;;;;;;7.05;3.08;;;18.90;49.10;;;;;;5026984;28;20504;-67
2023/06/12 02:33:09;;;;;;;4.93;3.03;;;18.90;49.30;;;;;;5015431;28;20481;-67
2023/06/12 02:35:39;;;;;;;6.78;2.80;;;18.90;49.30;;;;;;5019010;28;20128;-67
2023/06/12 02:38:04;;;;;;;6.22;3.15;;;18.90;49.30;;;;;;5024784;28;20046;-67
2023/06/12 02:40:30;;;;;;;5.47;2.97;;;18.90;49.30;;;;;;5021829;28;20779;-67
2023/06/12 02:42:56;;;;;;;6.95;3.58;;;19.00;49.40;;;;;;5020948;28;20045;-67
2023/06/12 02:45:23;;;;;;;6.93;3.10;;;19.00;49.50;;;;;;5031358;28;20089;-67
2023/06/12 02:47:49;;;;;;;5.97;2.97;;;19.00;49.40;;;;;;5026284;28;20042;-67
2023/06/12 02:50:15;;;;;;;6.50;2.85;;;19.10;49.50;;;;;;5015834;28;20042;-67
2023/06/12 02:52:40;;;;;;;5.50;2.95;;;19.10;49.40;;;;;;5019137;28;20042;-69
2023/06/12 02:55:07;;;;;;;5.07;3.40;;;19.20;49.40;;;;;;5010190;28;20046;-68
2023/06/12 02:57:33;;;;;;;6.07;2.92;;;19.20;49.50;;;;;;5018354;28;20046;-68
2023/06/12 02:59:59;;;;;;;4.03;2.90;;;19.20;49.50;;;;;;4996206;28;20038;-68
2023/06/12 03:02:25;;;;;;;4.72;2.85;;;19.30;49.40;;;;;;5001381;28;20033;-68
2023/06/12 03:04:52;;;;;;;5.93;3.05;;;19.30;49.40;;;;;;5014705;28;20052;-69
2023/06/12 03:07:18;;;;;;;3.95;2.70;;;19.40;49.30;;;;;;5024950;28;20477;-68
2023/06/12 03:09:44;;;;;;;6.38;3.40;;;19.40;49.20;;;;;;5021282;28;20040;-68
2023/06/12 03:12:11;;;;;;;6.10;2.80;;;19.40;49.20;;;;;;5021391;28;20038;-68
2023/06/12 03:14:38;;;;;;;6.60;3.65;;;19.50;49.20;;;;;;5022281;28;20053;-68
2023/06/12 03:17:05;;;;;;;8.45;3.45;;;19.50;49.30;;;;;;5025793;28;20473;-69
2023/06/12 03:19:31;;;;;;;5.28;3.38;;;19.50;49.40;;;;;;5016953;28;20092;-69
2023/06/12 03:21:57;;;;;;;6.55;3.15;;;19.50;49.40;;;;;;5022396;28;20044;-68
2023/06/12 03:24:24;;;;;;;8.35;3.10;;;19.50;49.40;;;;;;5022326;28;20115;-68
2023/06/12 03:26:50;;;;;;;6.18;3.83;;;19.50;49.60;;;;;;5025498;28;20041;-68
2023/06/12 03:29:16;;;;;;;3.22;2.45;;;19.40;49.60;;;;;;5020155;28;20037;-68
2023/06/12 03:31:42;;;;;;;5.32;3.00;;;19.40;49.60;;;;;;5022720;28;20056;-68
2023/06/12 03:34:08;;;;;;;5.75;3.17;;;19.40;49.80;;;;;;5025922;28;20033;-68
2023/06/12 03:36:37;;;;;;;6.00;3.10;;;19.30;49.90;;;;;;5018927;28;20069;-68
2023/06/12 03:39:03;;;;;;;4.80;3.08;;;19.30;49.80;;;;;;5020787;28;20046;-68
2023/06/12 03:41:31;;;;;;;6.18;3.25;;;19.30;49.80;;;;;;5019468;28;20389;-68
2023/06/12 03:43:57;;;;;;;4.35;2.80;;;19.30;50.00;;;;;;5025950;28;20049;-68
2023/06/12 03:46:23;;;;;;;4.35;2.97;;;19.30;50.00;;;;;;5019398;28;20155;-68
2023/06/12 03:48:49;;;;;;;7.65;3.20;;;19.30;49.90;;;;;;5027051;28;20045;-68
2023/06/12 03:51:15;;;;;;;7.20;3.80;;;19.30;50.00;;;;;;5014311;28;20041;-68
2023/06/12 03:53:41;;;;;;;7.47;3.78;;;19.30;50.10;;;;;;5004204;28;20052;-68
2023/06/12 03:56:07;;;;;;;5.75;2.90;;;19.40;50.40;;;;;;5022019;28;20050;-68
2023/06/12 03:58:33;;;;;;;4.05;2.47;;;19.40;50.20;;;;;;5018191;28;20131;-68
2023/06/12 04:00:59;;;;;;;3.60;2.58;;;19.40;50.20;;;;;;5018033;28;20482;-68
2023/06/12 04:03:25;;;;;;;5.57;2.67;;;19.40;50.20;;;;;;5016981;28;20092;-68
2023/06/12 04:05:51;;;;;;;4.30;2.83;;;19.40;50.20;;;;;;5022479;28;20128;-68
2023/06/12 04:08:18;;;;;;;5.43;2.63;;;19.50;50.10;;;;;;5025683;28;20096;-68
2023/06/12 04:10:44;;;;;;;3.90;2.55;;;19.50;50.10;;;;;;5026673;28;20049;-68
2023/06/12 04:13:10;;;;;;;4.60;2.88;;;19.50;50.10;;;;;;5018895;28;20493;-68
2023/06/12 04:15:38;;;;;;;6.43;3.47;;;19.50;50.20;;;;;;5026341;28;20388;-68
2023/06/12 04:18:05;;;;;;;4.63;2.63;;;19.50;50.20;;;;;;5024462;28;20078;-67
2023/06/12 04:20:34;;;;;;;5.20;2.88;;;19.50;50.20;;;;;;5015038;28;20050;-67
2023/06/12 04:23:04;;;;;;;5.75;2.95;;;19.50;50.40;;;;;;5016264;28;20109;-67
2023/06/12 04:25:31;;;;;;;4.68;3.25;;;19.60;50.50;;;;;;5009156;28;20454;-67
2023/06/12 04:27:58;;;;;;;4.72;2.97;;;19.60;50.60;;;;;;5027517;28;20033;-67
2023/06/12 04:30:25;;;;;;;6.95;2.85;;;19.60;50.60;;;;;;5018232;28;20485;-68
2023/06/12 04:32:53;;;;;;;5.25;3.35;;;19.60;50.70;;;;;;5023419;28;20380;-68
2023/06/12 04:35:19;;;;;;;6.63;3.22;;;19.50;50.90;;;;;;5018092;28;20084;-68
2023/06/12 04:37:48;;;;;;;4.68;3.00;;;19.60;51.00;;;;;;5024370;28;20046;-67
2023/06/12 04:40:15;;;;;;;6.70;3.33;;;19.50;51.10;;;;;;5033125;28;20037;-67
2023/06/12 04:42:43;;;;;;;6.07;2.80;;;19.50;51.20;;;;;;5024413;28;20060;-67
2023/06/12 04:45:12;;;;;;;6.25;3.47;;;19.50;51.20;;;;;;5024760;28;20112;-67
2023/06/12 04:47:39;;;;;;;7.38;3.58;;;19.50;51.50;;;;;;5021328;28;20497;-67
2023/06/12 04:50:08;;;;;;;7.65;3.13;;;19.50;52.00;;;;;;5018553;28;20125;-67
2023/06/12 04:52:34;;;;;;;6.93;3.33;;;19.50;52.10;;;;;;5015706;28;20045;-67
2023/06/12 04:55:00;;;;;;;5.97;3.47;;;19.50;52.30;;;;;;5024122;28;20557;-68
2023/06/12 04:57:27;;;;;;;6.38;3.17;;;19.50;52.40;;;;;;5026396;28;20046;-68
2023/06/12 04:59:52;;;;;;;5.95;3.45;;;19.50;52.70;;;;;;5022047;28;20060;-68
2023/06/12 05:02:18;;;;;;;10.80;3.40;;;19.40;52.80;;;;;;5015651;28;20037;-68
2023/06/12 05:04:44;;;;;;;7.65;3.22;;;19.40;53.00;;;;;;5026028;28;20165;-67
2023/06/12 05:07:16;;;;;;;6.43;3.40;;;19.30;53.10;;;;;;5027578;28;20033;-67
2023/06/12 05:09:43;;;;;;;5.30;3.13;;;19.30;53.50;;;;;;5019742;28;20053;-67
2023/06/12 05:12:10;;;;;;;6.35;3.58;;;19.30;53.80;;;;;;5026110;28;20038;-69
2023/06/12 05:14:41;;;;;;;6.05;3.63;;;19.40;54.30;;;;;;5023954;28;20124;-69
2023/06/12 05:17:07;;;;;;;5.65;3.42;;;19.50;54.80;;;;;;5020016;28;20369;-68
2023/06/12 05:19:33;;;;;;;6.90;3.15;;;19.60;55.10;;;;;;5020277;28;20049;-69
2023/06/12 05:21:59;;;;;;;8.38;3.50;;;19.90;55.10;;;;;;5026759;28;20319;-68
2023/06/12 05:24:25;;;;;;;8.82;4.07;;;20.20;54.30;;;;;;5018812;28;20088;-69
2023/06/12 05:26:51;;;;;;;7.40;3.60;;;20.40;53.80;;;;;;5017173;28;20482;-69
2023/06/12 05:29:17;;;;;;;5.68;3.30;;;20.80;53.40;;;;;;5023189;28;20041;-68
2023/06/12 05:31:43;;;;;;;8.50;3.58;;;21.10;52.70;;;;;;4990203;28;20535;-68
2023/06/12 05:34:09;;;;;;;9.40;4.63;;;21.30;51.80;;;;;;5019782;28;20045;-68
2023/06/12 05:36:35;;;;;;;7.60;3.97;;;21.40;51.20;;;;;;5017845;28;20046;-68
2023/06/12 05:39:01;;;;;;;6.35;4.28;;;21.60;51.00;;;;;;5022442;28;20042;-69
2023/06/12 05:41:27;;;;;;;11.00;4.25;;;21.70;50.40;;;;;;5025496;28;20132;-68
2023/06/12 05:43:52;;;;;;;6.75;3.70;;;21.90;50.00;;;;;;5030260;28;20072;-68
2023/06/12 05:46:18;;;;;;;7.40;3.35;;;21.90;49.60;;;;;;5019141;28;20033;-68
2023/06/12 05:48:44;;;;;;;9.35;4.35;;;22.00;49.80;;;;;;5020678;28;20069;-68
2023/06/12 05:51:09;;;;;;;7.75;3.88;;;22.10;49.70;;;;;;5016323;28;20034;-68
2023/06/12 05:53:35;;;;;;;9.95;3.90;;;22.30;49.40;;;;;;5022979;28;20129;-68
2023/06/12 05:56:01;;;;;;;8.35;4.25;;;22.50;49.10;;;;;;5023422;28;20095;-68
2023/06/12 05:58:27;;;;;;;8.63;4.10;;;22.60;48.90;;;;;;5024722;28;20037;-69
2023/06/12 06:00:55;;;;;;;7.85;3.97;;;22.70;48.70;;;;;;5004977;28;20040;-69
2023/06/12 06:03:23;;;;;;;7.80;3.33;;;22.90;48.50;;;;;;5027677;28;20038;-69
2023/06/12 06:05:49;;;;;;;7.53;4.03;;;23.10;48.20;;;;;;5023629;28;20041;-69
2023/06/12 06:08:15;;;;;;;8.85;3.63;;;23.30;47.80;;;;;;5031848;28;20378;-69
2023/06/12 06:10:41;;;;;;;5.15;3.75;;;23.40;48.30;;;;;;5023430;28;20115;-69
2023/06/12 06:13:08;;;;;;;9.13;4.10;;;23.60;48.00;;;;;;5023615;28;20044;-69
2023/06/12 06:15:34;;;;;;;7.68;3.90;;;23.70;47.40;;;;;;5029621;28;20112;-69
2023/06/12 06:17:59;;;;;;;7.45;4.35;;;23.70;46.60;;;;;;5027010;28;20564;-69
2023/06/12 06:20:26;;;;;;;8.57;3.95;;;23.60;46.50;;;;;;5021477;28;20083;-69
2023/06/12 06:22:52;;;;;;;6.13;3.53;;;23.60;46.70;;;;;;5023673;28;20034;-69
2023/06/12 06:25:18;;;;;;;12.13;4.53;;;23.60;47.30;;;;;;5026264;28;20044;-69
2023/06/12 06:27:44;;;;;;;6.95;3.70;;;23.60;47.30;;;;;;5036541;28;20050;-69
2023/06/12 06:30:10;;;;;;;6.90;3.65;;;23.80;47.50;;;;;;5026978;28;20039;-69
2023/06/12 06:32:36;;;;;;;8.43;4.38;;;24.00;47.40;;;;;;5015030;28;20045;-69
2023/06/12 06:35:02;;;;;;;9.10;3.90;;;24.20;47.30;;;;;;5023553;28;20165;-69
2023/06/12 06:37:28;;;;;;;7.80;4.18;;;24.40;46.60;;;;;;5018727;28;20161;-69
2023/06/12 06:39:54;;;;;;;6.05;3.75;;;24.60;46.60;;;;;;5019323;28;20493;-69
2023/06/12 06:42:20;;;;;;;6.57;3.63;;;24.80;46.20;;;;;;5023325;28;20397;-69
2023/06/12 06:44:45;;;;;;;7.82;4.15;;;25.10;46.50;;;;;;5019327;28;20416;-68
2023/06/12 06:47:11;;;;;;;7.03;3.35;;;25.40;46.20;;;;;;5023979;28;20116;-70
2023/06/12 06:49:38;;;;;;;8.65;4.03;;;25.70;45.60;;;;;;5017709;28;20037;-70
2023/06/12 06:52:04;;;;;;;7.72;3.53;;;26.10;45.10;;;;;;5022894;28;20041;-70
2023/06/12 06:54:30;;;;;;;6.47;3.67;;;26.40;44.40;;;;;;5025702;28;20500;-70
2023/06/12 06:56:56;;;;;;;7.72;3.88;;;26.70;43.10;;;;;;5027433;28;20033;-70
2023/06/12 06:59:23;;;;;;;5.72;3.53;;;26.90;43.20;;;;;;5018548;28;20042;-70
2023/06/12 07:01:49;;;;;;;5.97;4.00;;;27.00;42.60;;;;;;5020366;28;20037;-70
2023/06/12 07:04:15;;;;;;;7.10;3.53;;;27.20;42.10;;;;;;5018268;28;20044;-70
2023/06/12 07:06:41;;;;;;;6.82;3.53;;;27.20;41.90;;;;;;5024166;28;20042;-70
2023/06/12 07:09:08;;;;;;;5.32;3.75;;;27.30;41.90;;;;;;5026293;28;20065;-70
2023/06/12 07:11:33;;;;;;;5.15;3.55;;;27.50;41.50;;;;;;5017708;28;20056;-70
2023/06/12 07:13:59;;;;;;;7.10;3.60;;;27.60;41.10;;;;;;5029439;28;20037;-70
2023/06/12 07:16:25;;;;;;;5.95;3.17;;;27.70;41.00;;;;;;5018311;28;20073;-70
2023/06/12 07:18:51;;;;;;;6.20;3.95;;;27.90;40.90;;;;;;5029700;28;20392;-70
2023/06/12 07:21:17;;;;;;;7.38;4.00;;;28.10;40.30;;;;;;5026289;28;20037;-70
2023/06/12 07:23:43;;;;;;;9.38;4.10;;;28.20;39.90;;;;;;5022909;28;20112;-67
2023/06/12 07:26:09;;;;;;;7.93;3.65;;;28.30;39.60;;;;;;5016030;28;20038;-67
2023/06/12 07:28:35;;;;;;;6.32;3.20;;;28.40;39.30;;;;;;5016908;28;20137;-67
2023/06/12 07:31:01;;;;;;;5.97;3.08;;;28.60;39.50;;;;;;5025221;28;20091;-66
2023/06/12 07:33:27;;;;;;;4.43;3.33;;;28.80;39.30;;;;;;5050014;28;20045;-67
2023/06/12 07:35:52;;;;;;;7.22;3.22;;;29.00;39.00;;;;;;5026262;28;20120;-66
2023/06/12 07:38:19;;;;;;;8.57;3.38;;;29.20;38.80;;;;;;5015359;28;20053;-65
2023/06/12 07:40:44;;;;;;;7.40;3.72;;;29.30;38.80;;;;;;5018412;28;20060;-65
2023/06/12 07:43:10;;;;;;;7.05;3.75;;;29.50;38.80;;;;;;5017644;28;20033;-65
2023/06/12 07:45:36;;;;;;;8.20;3.10;;;29.70;38.50;;;;;;5023306;28;20038;-65
2023/06/12 07:48:02;;;;;;;8.07;4.00;;;29.80;38.10;;;;;;5031942;28;20037;-66
2023/06/12 07:50:27;;;;;;;7.47;3.20;;;29.90;38.00;;;;;;5024976;28;20459;-66
2023/06/12 07:52:53;;;;;;;7.10;3.53;;;29.90;38.30;;;;;;5016325;28;20116;-66
2023/06/12 07:55:20;;;;;;;7.25;4.25;;;30.10;37.60;;;;;;5029721;28;20094;-66
2023/06/12 07:57:47;;;;;;;6.55;3.30;;;30.10;37.50;;;;;;5033831;28;20045;-66
2023/06/12 08:00:14;;;;;;;3.85;3.38;;;30.20;37.50;;;;;;5033576;28;20370;-66
2023/06/12 08:02:40;;;;;;;5.40;3.67;;;30.40;37.10;;;;;;5035944;28;20045;-67
2023/06/12 08:05:07;;;;;;;6.47;3.47;;;30.40;36.70;;;;;;5028770;28;20116;-66
2023/06/12 08:07:33;;;;;;;4.95;3.58;;;30.40;36.70;;;;;;5033786;28;20088;-66
2023/06/12 08:10:00;;;;;;;6.20;3.38;;;30.50;36.00;;;;;;5026345;28;20076;-66
2023/06/12 08:12:26;;;;;;;8.10;3.40;;;30.60;36.00;;;;;;5034450;28;20048;-66
2023/06/12 08:14:53;;;;;;;5.93;3.38;;;30.60;36.20;;;;;;5034751;28;20385;-66
2023/06/12 08:17:20;;;;;;;7.60;3.33;;;30.80;36.10;;;;;;5034018;28;20033;-66
2023/06/12 08:19:47;;;;;;;6.50;3.35;;;30.90;35.90;;;;;;5030814;28;20041;-66
2023/06/12 08:22:14;;;;;;;5.13;3.15;;;31.00;35.20;;;;;;5016322;28;20443;-67
2023/06/12 08:24:43;;;;;;;5.05;3.47;;;31.10;35.70;;;;;;5022956;28;20061;-68
2023/06/12 08:27:11;;;;;;;7.07;3.33;;;31.20;35.30;;;;;;5016087;28;20513;-68
2023/06/12 08:29:38;;;;;;;5.60;3.47;;;31.40;35.30;;;;;;5016722;28;20053;-69
2023/06/12 08:32:04;;;;;;;4.13;3.08;;;31.50;35.30;;;;;;5015142;28;20053;-69
2023/06/12 08:34:30;;;;;;;6.18;3.00;;;31.60;35.20;;;;;;5016578;28;20046;-69
2023/06/12 08:36:56;;;;;;;6.65;3.13;;;31.70;35.00;;;;;;5023449;28;20049;-69
2023/06/12 08:39:22;;;;;;;7.90;3.00;;;31.70;35.10;;;;;;5005338;28;20477;-69
2023/06/12 08:42:03;;;;;;;5.40;3.08;;;31.60;34.00;;;;;;5020266;28;20037;-69
2023/06/12 08:44:30;;;;;;;4.93;3.22;;;31.50;33.70;;;;;;5034157;28;20042;-69
2023/06/12 08:46:56;;;;;;;4.50;3.38;;;31.40;34.30;;;;;;5029202;28;20038;-69
2023/06/12 08:49:22;;;;;;;6.63;3.72;;;31.20;33.90;;;;;;5025702;28;20121;-69
2023/06/12 08:51:51;;;;;;;6.13;3.47;;;31.10;34.20;;;;;;5016454;28;20426;-68
2023/06/12 08:54:17;;;;;;;6.90;3.95;;;31.00;34.50;;;;;;5010128;28;20081;-68
2023/06/12 08:56:47;;;;;;;6.93;3.30;;;30.90;34.70;;;;;;5013160;28;20042;-69
2023/06/12 08:59:14;;;;;;;9.55;3.67;;;30.80;34.50;;;;;;5011479;28;20058;-66
2023/06/12 09:01:41;;;;;;;6.93;3.50;;;30.60;34.70;;;;;;5010133;28;20064;-66
2023/06/12 09:04:13;;;;;;;5.80;3.40;;;30.50;34.80;;;;;;5010419;28;20042;-66
2023/06/12 09:06:42;;;;;;;8.70;2.85;;;30.50;34.70;;;;;;5011308;28;20493;-66
2023/06/12 09:09:08;;;;;;;5.53;3.50;;;30.50;34.80;;;;;;5009151;28;20486;-66
2023/06/12 09:11:40;;;;;;;6.45;2.97;;;30.50;35.20;;;;;;5009740;28;20088;-66
2023/06/12 09:14:07;;;;;;;5.28;3.22;;;30.60;34.60;;;;;;5008348;28;20049;-66
2023/06/12 09:16:33;;;;;;;4.30;3.60;;;30.70;34.40;;;;;;5011032;28;20075;-66
2023/06/12 09:18:58;;;;;;;4.95;3.42;;;30.80;34.80;;;;;;5010251;28;20065;-66
2023/06/12 09:21:24;;;;;;;5.20;3.83;;;30.80;34.10;;;;;;5008650;28;20046;-66
2023/06/12 09:23:52;;;;;;;6.40;3.70;;;30.90;33.50;;;;;;5010033;28;20424;-66
2023/06/12 09:26:21;;;;;;;5.72;3.33;;;30.80;33.60;;;;;;5009227;28;20136;-66
2023/06/12 09:28:51;;;;;;;7.20;3.60;;;30.70;34.00;;;;;;5009551;28;20506;-66
2023/06/12 09:31:17;;;;;;;6.88;3.97;;;30.70;34.60;;;;;;5008089;28;20049;-66
2023/06/12 09:33:44;;;;;;;6.35;3.30;;;30.80;34.60;;;;;;5009952;28;20042;-65
2023/06/12 09:36:12;;;;;;;8.63;4.10;;;30.90;34.60;;;;;;5009196;28;20037;-65
2023/06/12 09:38:39;;;;;;;6.05;3.63;;;30.90;33.70;;;;;;5009241;28;20046;-66
2023/06/12 09:41:08;;;;;;;6.63;3.67;;;30.80;33.70;;;;;;4992199;28;20128;-66
2023/06/12 09:43:34;;;;;;;6.75;4.20;;;30.70;34.70;;;;;;5009541;28;20084;-66
2023/06/12 09:46:08;;;;;;;6.03;3.80;;;30.70;35.20;;;;;;5008956;28;20049;-66
2023/06/12 09:48:41;;;;;;;4.60;3.47;;;30.80;35.10;;;;;;5009898;28;20047;-66
2023/06/12 09:51:08;;;;;;;5.82;3.55;;;30.80;35.10;;;;;;5013964;28;20054;-66
2023/06/12 09:53:36;;;;;;;8.75;4.20;;;30.80;34.50;;;;;;5013783;28;20042;-66
2023/06/12 09:56:07;;;;;;;8.30;3.95;;;30.90;34.40;;;;;;5033874;28;20033;-67
2023/06/12 09:58:38;;;;;;;7.88;4.13;;;31.00;34.30;;;;;;5032448;28;20045;-67
2023/06/12 10:01:08;;;;;;;5.78;4.28;;;31.00;34.50;;;;;;5032275;28;20503;-66
2023/06/12 10:03:39;;;;;;;7.57;3.70;;;31.10;34.00;;;;;;5029236;28;20045;-66
2023/06/12 10:06:12;;;;;;;8.98;3.78;;;31.10;34.80;;;;;;5033688;28;20041;-67
2023/06/12 10:08:38;;;;;;;4.50;3.63;;;31.20;35.00;;;;;;5033740;28;20136;-66
2023/06/12 10:11:06;;;;;;;6.95;3.78;;;31.30;35.10;;;;;;5033531;28;20045;-66
2023/06/12 10:13:34;;;;;;;5.93;4.78;;;31.40;34.40;;;;;;5031873;28;20451;-67
2023/06/12 10:16:01;;;;;;;7.65;4.22;;;31.40;32.40;;;;;;5029246;28;20046;-66
2023/06/12 10:18:28;;;;;;;7.57;4.60;;;31.40;32.50;;;;;;4990182;28;20111;-67
2023/06/12 10:20:54;;;;;;;6.30;4.95;;;31.50;32.80;;;;;;5008374;28;20072;-66
2023/06/12 10:23:22;;;;;;;5.78;4.57;;;31.60;31.60;;;;;;5007833;28;20049;-66
2023/06/12 10:25:49;;;;;;;8.20;5.35;;;31.50;30.50;;;;;;5007360;28;20501;-66
2023/06/12 10:28:16;;;;;;;6.53;4.65;;;31.50;31.10;;;;;;5023847;28;20053;-66
2023/06/12 10:31:11;;;;;;;8.30;4.90;;;31.50;31.40;;;;;;5007540;28;20049;-66
2023/06/12 10:33:37;;;;;;;4.95;4.45;;;31.40;31.80;;;;;;5008687;28;20050;-66
2023/06/12 10:36:13;;;;;;;5.43;4.72;;;31.40;32.00;;;;;;5008113;28;20453;-66
2023/06/12 10:38:47;;;;;;;5.43;4.45;;;31.40;32.60;;;;;;5005924;28;20057;-66
2023/06/12 10:41:12;;;;;;;5.85;4.72;;;31.50;32.60;;;;;;5006393;28;20038;-66
2023/06/12 10:43:40;;;;;;;5.18;4.60;;;31.50;32.50;;;;;;5006738;28;20053;-66
2023/06/12 10:46:11;;;;;;;4.65;4.25;;;31.70;32.10;;;;;;5008358;28;20111;-65
2023/06/12 10:48:47;;;;;;;5.68;4.40;;;31.70;30.60;;;;;;5007752;28;20053;-66
2023/06/12 10:51:12;;;;;;;7.15;4.90;;;31.60;30.00;;;;;;4990936;28;20060;-66
2023/06/12 10:53:46;;;;;;;5.82;5.22;;;31.50;30.40;;;;;;5008923;28;20481;-66
2023/06/12 10:56:12;;;;;;;5.85;4.03;;;31.60;31.50;;;;;;5006586;28;20057;-66
2023/06/12 10:58:42;;;;;;;5.47;3.95;;;31.40;30.20;;;;;;5006685;28;20068;-66
2023/06/12 11:01:09;;;;;;;6.10;4.13;;;31.10;29.50;;;;;;5005424;28;20049;-66
2023/06/12 11:03:37;;;;;;;4.63;4.22;;;31.00;29.60;;;;;;5007509;28;20042;-66
2023/06/12 11:06:16;;;;;;;5.15;4.30;;;31.00;30.90;;;;;;5006439;28;20077;-66
2023/06/12 11:08:46;;;;;;;7.15;4.75;;;31.10;31.60;;;;;;5006902;28;20367;-67
2023/06/12 11:11:14;;;;;;;6.07;4.85;;;31.10;30.60;;;;;;5008129;28;20034;-66
2023/06/12 11:13:41;;;;;;;6.45;4.63;;;31.10;30.50;;;;;;5008304;28;20661;-66
2023/06/12 11:16:07;;;;;;;5.60;4.43;;;30.90;30.50;;;;;;5005977;28;20069;-67
2023/06/12 11:18:32;;;;;;;6.45;5.45;;;30.80;30.40;;;;;;5006089;28;20050;-66
2023/06/12 11:20:58;;;;;;;7.40;5.35;;;30.70;30.50;;;;;;5006238;28;20116;-66
2023/06/12 11:23:28;;;;;;;6.38;4.80;;;30.50;30.90;;;;;;5007600;28;21591;-67
2023/06/12 11:25:55;;;;;;;5.68;5.15;;;30.70;31.70;;;;;;5006534;28;20046;-66
2023/06/12 11:28:25;;;;;;;5.68;5.07;;;30.70;32.00;;;;;;5006250;28;21353;-66
2023/06/12 11:30:53;;;;;;;6.15;4.55;;;30.80;31.90;;;;;;5008026;28;20663;-67
2023/06/12 11:33:20;;;;;;;5.40;4.70;;;30.90;31.10;;;;;;5006426;28;20045;-66
2023/06/12 11:35:48;;;;;;;5.57;5.00;;;30.90;31.40;;;;;;5022014;28;20041;-66
2023/06/12 11:38:16;;;;;;;6.03;5.18;;;31.00;31.40;;;;;;5018741;28;20062;-66
2023/06/12 11:40:42;;;;;;;5.82;5.25;;;31.00;30.70;;;;;;5005535;28;20046;-67
2023/06/12 11:43:11;;;;;;;7.78;5.30;;;31.10;31.40;;;;;;5007022;28;20128;-67
2023/06/12 11:45:43;;;;;;;6.75;5.20;;;31.20;30.30;;;;;;5007415;28;20029;-67
2023/06/12 11:48:16;;;;;;;7.13;5.13;;;31.30;30.50;;;;;;5005930;28;20048;-67
2023/06/12 11:50:47;;;;;;;8.75;5.68;;;31.40;30.30;;;;;;5007410;28;20046;-67
2023/06/12 11:53:14;;;;;;;6.30;5.05;;;31.40;30.00;;;;;;5006056;28;20046;-67
2023/06/12 11:55:40;;;;;;;6.70;5.72;;;31.30;30.10;;;;;;5006611;28;20041;-67
2023/06/12 11:58:06;;;;;;;7.38;6.05;;;31.20;29.60;;;;;;5006601;28;20100;-66
2023/06/12 12:00:34;;;;;;;7.85;5.68;;;31.10;29.60;;;;;;5006883;28;20044;-65
2023/06/12 12:03:03;;;;;;;6.53;5.90;;;31.00;29.30;;;;;;5006884;28;20049;-64
2023/06/12 12:05:34;;;;;;;8.30;6.53;;;31.00;29.80;;;;;;5005883;28;20105;-64
2023/06/12 12:08:03;;;;;;;7.70;6.93;;;31.00;29.90;;;;;;5007203;28;20069;-64
2023/06/12 12:10:37;;;;;;;7.18;6.57;;;31.10;29.60;;;;;;5006040;28;20046;-66
2023/06/12 12:13:03;;;;;;;7.50;6.30;;;31.10;28.90;;;;;;5006636;28;20049;-67
2023/06/12 12:15:31;;;;;;;6.35;5.75;;;31.00;29.10;;;;;;5011760;28;20392;-66
2023/06/12 12:17:58;;;;;;;7.10;6.22;;;31.00;29.60;;;;;;5014416;28;20081;-68
2023/06/12 12:20:29;;;;;;;8.82;6.00;;;31.10;30.00;;;;;;5015605;28;20214;-67
2023/06/12 12:22:58;;;;;;;6.55;5.95;;;31.20;29.90;;;;;;5026223;28;20501;-67
2023/06/12 12:25:28;;;;;;;7.00;6.30;;;31.20;29.40;;;;;;5035706;28;20464;-67
2023/06/12 12:27:56;;;;;;;6.53;6.03;;;31.20;28.60;;;;;;5049208;28;20098;-67
2023/06/12 12:30:22;;;;;;;6.55;5.95;;;31.20;28.80;;;;;;5034034;28;20045;-67
2023/06/12 12:32:54;;;;;;;7.13;6.43;;;31.30;28.70;;;;;;5035465;28;20045;-67
2023/06/12 12:35:21;;;;;;;6.55;5.75;;;31.20;28.70;;;;;;5034231;28;20077;-67
2023/06/12 12:37:48;;;;;;;6.75;6.05;;;31.20;28.80;;;;;;5002088;28;20542;-69
2023/06/12 12:40:14;;;;;;;5.78;5.10;;;31.20;28.60;;;;;;5014454;28;20069;-68
2023/06/12 12:42:45;;;;;;;8.32;5.90;;;31.20;28.60;;;;;;5023675;28;20441;-69
2023/06/12 12:45:13;;;;;;;6.70;6.03;;;31.30;28.70;;;;;;5033758;28;20049;-68
2023/06/12 12:47:44;;;;;;;9.90;6.20;;;31.30;28.60;;;;;;5035119;28;20050;-67